Time;durP1;ratioP1;P1;durP2;ratioP2;P2;SDS_P1;SDS_P2;PMS_P1;PMS_P2;Temp;Humidity;BMP_temperature;BMP_pressure;BME280_temperature;BME280_humidity;BME280_pressure;Samples;Min_cycle;Max_cycle;Signal;HPM_P1;HPM_P2
2022/08/08 00:00:26;;;;;;;8.77;5.82;;;;;;;17.31;74.66;96684.31;5051392;28;20748;-80
2022/08/08 00:02:59;;;;;;;7.70;5.50;;;;;;;17.33;75.00;96687.53;5052115;28;20668;-78
2022/08/08 00:05:34;;;;;;;7.53;5.60;;;;;;;17.28;74.26;96682.28;5051703;28;20547;-80
2022/08/08 00:08:08;;;;;;;8.80;6.25;;;;;;;17.27;75.00;96688.94;5052265;28;20037;-78
2022/08/08 00:10:44;;;;;;;6.30;5.07;;;;;;;17.29;75.25;96678.38;5044374;28;20107;-79
2022/08/08 00:13:19;;;;;;;7.18;5.57;;;;;;;17.27;74.08;96683.41;5052072;28;20044;-79
2022/08/08 00:15:55;;;;;;;7.80;5.70;;;;;;;17.24;74.88;96681.38;5052560;28;20045;-79
2022/08/08 00:18:28;;;;;;;8.00;5.80;;;;;;;17.26;74.12;96670.81;5070449;28;20044;-79
2022/08/08 00:20:57;;;;;;;7.63;5.30;;;;;;;17.20;73.33;96677.75;5068115;28;20055;-79
2022/08/08 00:23:29;;;;;;;7.40;5.28;;;;;;;17.17;73.85;96673.75;5070982;28;20131;-80
2022/08/08 00:26:01;;;;;;;7.88;5.35;;;;;;;17.15;73.39;96683.50;5071846;28;20052;-79
2022/08/08 00:28:33;;;;;;;8.35;5.57;;;;;;;17.11;73.90;96685.34;5071763;28;20123;-79
2022/08/08 00:31:06;;;;;;;7.63;5.32;;;;;;;17.10;73.59;96683.75;5072056;28;20529;-79
2022/08/08 00:33:42;;;;;;;7.07;4.90;;;;;;;17.00;74.00;96682.31;5091783;28;20040;-80
2022/08/08 00:36:20;;;;;;;6.15;4.78;;;;;;;16.90;74.17;96680.88;5091371;28;20046;-78
2022/08/08 00:38:49;;;;;;;6.60;5.20;;;;;;;16.87;74.54;96681.59;5091509;28;20400;-78
2022/08/08 00:41:48;;;;;;;9.77;5.72;;;;;;;16.83;74.72;96674.38;5091000;28;20489;-78
2022/08/08 00:44:40;;;;;;;7.63;5.70;;;;;;;16.75;75.41;96684.38;5090944;28;20059;-78
2022/08/08 00:47:44;;;;;;;7.97;5.70;;;;;;;16.66;75.60;96675.44;5090081;28;20063;-78
2022/08/08 00:50:37;;;;;;;7.18;5.28;;;;;;;16.52;76.03;96683.28;5090509;28;20475;-78
2022/08/08 00:53:16;;;;;;;8.23;4.97;;;;;;;16.48;76.33;96679.63;5088820;28;20471;-79
2022/08/08 00:56:22;;;;;;;7.30;5.15;;;;;;;16.45;76.68;96678.38;5095518;28;20040;-78
2022/08/08 00:59:48;;;;;;;7.80;5.10;;;;;;;16.50;77.26;96671.84;5104264;28;20040;-79
2022/08/08 01:02:49;;;;;;;6.68;4.65;;;;;;;16.50;76.75;96671.84;5103767;28;20044;-80
2022/08/08 01:05:49;;;;;;;7.82;5.13;;;;;;;16.50;77.26;96666.34;5063585;28;20048;-79
2022/08/08 01:08:57;;;;;;;6.82;4.38;;;;;;;16.53;76.68;96671.94;5096851;28;20044;-78
2022/08/08 01:12:02;;;;;;;6.35;4.93;;;;;;;16.52;75.81;96675.03;5082531;28;20048;-80
2022/08/08 01:15:04;;;;;;;7.22;5.05;;;;;;;16.51;75.93;96667.94;5094725;28;20479;-78
2022/08/08 01:18:21;;;;;;;6.00;4.55;;;;;;;16.46;75.76;96670.94;5094227;28;20056;-79
2022/08/08 01:21:06;;;;;;;6.78;4.63;;;;;;;16.39;75.64;96669.59;5030279;28;20049;-78
2022/08/08 01:24:00;;;;;;;6.88;4.47;;;;;;;16.37;76.29;96682.84;5093450;28;20044;-78
2022/08/08 01:26:44;;;;;;;7.72;4.35;;;;;;;16.39;77.08;96677.81;5072342;28;20548;-78
2022/08/08 01:29:44;;;;;;;6.93;4.70;;;;;;;16.40;77.08;96684.91;5072535;28;20040;-80
2022/08/08 01:32:44;;;;;;;6.93;4.88;;;;;;;16.37;76.42;96673.81;5072508;28;20040;-79
2022/08/08 01:35:41;;;;;;;7.53;4.43;;;;;;;16.37;76.75;96674.59;5069165;28;20045;-81
2022/08/08 01:38:46;;;;;;;5.78;4.88;;;;;;;16.33;75.71;96679.19;5071096;28;20048;-79
2022/08/08 01:41:26;;;;;;;7.35;4.85;;;;;;;16.32;74.94;96683.09;5072138;28;20466;-80
2022/08/08 01:44:06;;;;;;;5.90;4.22;;;;;;;16.29;74.77;96689.31;5071491;28;20675;-80
2022/08/08 01:46:46;;;;;;;6.45;4.65;;;;;;;16.24;74.73;96684.03;5080017;28;20484;-80
2022/08/08 01:49:21;;;;;;;5.47;4.10;;;;;;;16.22;75.23;96678.06;5073559;28;20439;-80
2022/08/08 01:51:58;;;;;;;12.02;4.55;;;;;;;16.24;75.66;96675.00;5077637;28;20060;-81
2022/08/08 01:54:39;;;;;;;6.68;4.68;;;;;;;16.26;75.77;96675.44;5070187;28;20048;-80
2022/08/08 01:57:18;;;;;;;7.82;4.90;;;;;;;16.27;75.81;96675.09;5070199;28;20047;-80
2022/08/08 02:00:00;;;;;;;6.97;4.45;;;;;;;16.22;75.48;96677.28;5071132;28;20070;-80
2022/08/08 02:02:40;;;;;;;6.38;4.68;;;;;;;16.25;76.03;96680.16;5069854;28;20040;-80
2022/08/08 02:05:25;;;;;;;7.18;4.82;;;;;;;16.24;75.38;96673.06;5070718;28;20561;-81
2022/08/08 02:08:05;;;;;;;5.93;4.70;;;;;;;16.25;75.90;96680.16;5071357;28;20475;-80
2022/08/08 02:10:42;;;;;;;6.60;4.57;;;;;;;16.28;76.47;96679.44;5069849;28;20048;-80
2022/08/08 02:13:16;;;;;;;6.82;4.80;;;;;;;16.29;75.55;96683.81;5070502;28;20041;-80
2022/08/08 02:15:52;;;;;;;7.38;4.95;;;;;;;16.25;74.95;96682.09;5072465;28;20045;-77
2022/08/08 02:18:26;;;;;;;6.50;4.57;;;;;;;16.19;75.49;96689.78;5074225;28;20056;-78
2022/08/08 02:23:50;;;;;;;7.13;4.50;;;;;;;16.12;76.98;96690.34;5074507;28;20733;-80
2022/08/08 02:26:24;;;;;;;6.63;4.88;;;;;;;16.13;76.12;96693.88;5074556;28;20078;-80
2022/08/08 02:29:06;;;;;;;8.38;4.95;;;;;;;16.10;76.67;96692.63;5074758;28;20047;-80
2022/08/08 02:31:40;;;;;;;6.80;5.00;;;;;;;16.13;77.21;96700.19;5082760;28;20483;-81
2022/08/08 02:34:16;;;;;;;7.68;5.25;;;;;;;16.13;77.69;96696.63;5073880;28;20094;-81
2022/08/08 02:37:00;;;;;;;7.13;4.70;;;;;;;16.12;77.24;96701.31;5074360;28;20056;-78
2022/08/08 02:39:51;;;;;;;8.05;5.25;;;;;;;16.13;77.12;96699.38;5073771;28;20045;-78
2022/08/08 02:42:53;;;;;;;6.85;5.05;;;;;;;16.04;76.64;96701.47;5073769;28;20078;-78
2022/08/08 02:45:54;;;;;;;5.47;4.53;;;;;;;15.98;77.53;96694.59;5068385;28;20625;-80
2022/08/08 02:49:00;;;;;;;6.80;5.00;;;;;;;15.89;76.75;96698.25;5049139;28;20089;-80
2022/08/08 02:52:12;;;;;;;6.57;4.70;;;;;;;15.75;77.52;96708.78;5050583;28;20041;-78
2022/08/08 02:55:21;;;;;;;5.25;4.53;;;;;;;15.56;78.78;96705.78;5066943;28;20036;-79
2022/08/08 02:58:26;;;;;;;10.00;4.95;;;;;;;15.42;79.44;96713.53;5066433;28;20049;-78
2022/08/08 03:01:36;;;;;;;8.00;5.38;;;;;;;15.31;80.57;96715.91;5055933;28;20443;-80
2022/08/08 03:04:39;;;;;;;8.73;5.45;;;;;;;15.31;80.71;96711.22;5073778;28;20049;-77
2022/08/08 03:07:45;;;;;;;6.17;5.20;;;;;;;15.30;81.04;96709.63;5074959;28;20044;-80
2022/08/08 03:10:46;;;;;;;8.25;6.05;;;;;;;15.34;81.37;96709.72;5075676;28;20040;-80
2022/08/08 03:13:44;;;;;;;6.93;6.10;;;;;;;15.38;81.41;96710.66;5075802;28;20051;-79
2022/08/08 03:16:34;;;;;;;9.85;6.50;;;;;;;15.40;81.95;96714.69;5073876;28;20045;-79
2022/08/08 03:19:16;;;;;;;6.65;5.82;;;;;;;15.44;81.98;96713.97;5077886;28;20036;-79
2022/08/08 03:21:43;;;;;;;8.60;6.03;;;;;;;15.47;82.07;96708.63;5064095;28;20083;-79
2022/08/08 03:24:11;;;;;;;9.70;5.82;;;;;;;15.45;81.64;96708.13;5058080;28;20041;-78
2022/08/08 03:26:43;;;;;;;7.25;6.25;;;;;;;15.51;81.68;96703.25;5057715;28;20045;-79
2022/08/08 03:29:16;;;;;;;7.40;5.65;;;;;;;15.52;81.07;96704.84;5054821;28;20048;-77
2022/08/08 03:34:27;;;;;;;7.45;5.55;;;;;;;15.52;81.08;96696.63;5053231;28;20574;-78
2022/08/08 03:36:53;;;;;;;7.90;5.47;;;;;;;15.56;79.77;96697.56;5053315;28;20075;-82
2022/08/08 03:39:22;;;;;;;7.47;5.88;;;;;;;15.58;80.02;96703.47;5052359;28;20408;-78
2022/08/08 03:41:49;;;;;;;8.57;5.57;;;;;;;15.56;79.55;96701.09;5052678;28;20049;-77
2022/08/08 03:44:16;;;;;;;6.47;4.93;;;;;;;15.58;79.54;96695.25;5052430;28;20049;-78
2022/08/08 03:46:46;;;;;;;7.20;5.13;;;;;;;15.61;79.41;96702.81;5052746;28;20041;-79
2022/08/08 03:49:20;;;;;;;6.47;5.20;;;;;;;15.60;79.40;96701.19;5055516;28;20052;-79
2022/08/08 03:51:51;;;;;;;6.82;5.15;;;;;;;15.56;79.25;96703.84;5072564;28;20507;-79
2022/08/08 03:54:20;;;;;;;7.20;5.65;;;;;;;15.57;79.75;96704.63;5071966;28;20052;-80
2022/08/08 03:56:47;;;;;;;6.53;5.25;;;;;;;15.62;80.02;96709.91;5072341;28;20044;-78
2022/08/08 03:59:14;;;;;;;6.97;5.30;;;;;;;15.65;78.84;96714.72;5072074;28;20131;-78
2022/08/08 04:01:41;;;;;;;8.05;5.25;;;;;;;15.61;78.54;96713.78;5072006;28;20499;-79
2022/08/08 04:04:08;;;;;;;6.43;5.22;;;;;;;15.64;79.27;96713.13;5071905;28;20051;-80
2022/08/08 04:06:35;;;;;;;7.93;5.85;;;;;;;15.68;78.58;96724.22;5073027;28;20048;-79
2022/08/08 04:09:04;;;;;;;6.47;5.35;;;;;;;15.62;78.44;96718.94;5072306;28;20407;-79
2022/08/08 04:11:32;;;;;;;8.15;5.15;;;;;;;15.61;78.69;96720.09;5071880;28;20399;-79
2022/08/08 04:13:59;;;;;;;7.60;5.10;;;;;;;15.56;79.18;96725.00;5071954;28;20045;-79
2022/08/08 04:16:26;;;;;;;6.38;5.18;;;;;;;15.50;79.44;96718.09;5071899;28;20049;-80
2022/08/08 04:18:53;;;;;;;9.30;5.55;;;;;;;15.51;79.33;96719.72;5072116;28;20049;-79
2022/08/08 04:21:22;;;;;;;7.15;5.20;;;;;;;15.42;79.28;96717.06;5071347;28;20051;-78
2022/08/08 04:23:48;;;;;;;6.88;5.25;;;;;;;15.40;79.63;96730.34;5071860;28;20048;-78
2022/08/08 04:26:15;;;;;;;5.97;4.95;;;;;;;15.35;79.91;96728.63;5071250;28;20045;-79
2022/08/08 04:28:43;;;;;;;8.70;5.75;;;;;;;15.33;79.87;96733.63;5071595;28;20056;-80
2022/08/08 04:31:09;;;;;;;6.13;5.28;;;;;;;15.33;80.72;96730.88;5070559;28;20040;-79
2022/08/08 04:33:36;;;;;;;6.03;5.28;;;;;;;15.35;80.42;96725.88;5071673;28;20411;-79
2022/08/08 04:36:03;;;;;;;6.35;5.50;;;;;;;15.35;80.18;96745.06;5070951;28;20059;-79
2022/08/08 04:38:29;;;;;;;7.88;5.28;;;;;;;15.38;80.78;96738.09;5070666;28;20044;-79
2022/08/08 04:40:56;;;;;;;6.47;5.30;;;;;;;15.36;80.99;96752.16;5071081;28;20044;-80
2022/08/08 04:43:23;;;;;;;6.60;5.28;;;;;;;15.34;80.74;96748.13;5070460;28;20051;-78
2022/08/08 04:45:51;;;;;;;7.93;5.70;;;;;;;15.34;81.06;96748.13;5071037;28;20041;-79
2022/08/08 04:48:17;;;;;;;7.82;5.82;;;;;;;15.33;80.13;96752.81;5070747;28;20404;-79
2022/08/08 04:50:44;;;;;;;7.68;5.68;;;;;;;15.35;80.25;96753.31;5070600;28;20040;-78
2022/08/08 04:53:13;;;;;;;8.57;5.60;;;;;;;15.36;79.32;96757.66;5069826;28;20051;-78
2022/08/08 04:55:40;;;;;;;7.32;5.63;;;;;;;15.34;79.76;96759.13;5070189;28;20040;-78
2022/08/08 04:58:07;;;;;;;7.88;5.63;;;;;;;15.32;79.37;96753.19;5069196;28;20049;-80
2022/08/08 05:00:33;;;;;;;8.00;5.95;;;;;;;15.30;79.90;96764.50;5070691;28;20079;-79
2022/08/08 05:03:01;;;;;;;6.95;5.68;;;;;;;15.27;80.28;96769.84;5069718;28;20044;-77
2022/08/08 05:05:27;;;;;;;8.30;6.00;;;;;;;15.21;80.41;96771.22;5070501;28;20041;-78
2022/08/08 05:07:55;;;;;;;6.32;5.63;;;;;;;15.12;80.62;96776.75;5070672;28;20052;-77
2022/08/08 05:10:21;;;;;;;7.55;6.18;;;;;;;15.09;80.55;96764.53;5070205;28;20511;-78
2022/08/08 05:12:48;;;;;;;8.15;6.00;;;;;;;15.10;80.50;96770.81;5070512;28;20048;-79
2022/08/08 05:15:14;;;;;;;6.60;5.70;;;;;;;15.13;81.17;96770.13;5069851;28;20067;-81
2022/08/08 05:17:41;;;;;;;7.82;5.63;;;;;;;15.16;81.02;96772.22;5070337;28;20047;-80
2022/08/08 05:20:10;;;;;;;9.82;6.25;;;;;;;15.22;81.21;96773.59;5069718;28;20123;-78
2022/08/08 05:22:36;;;;;;;9.43;6.05;;;;;;;15.25;81.11;96777.63;5070452;28;20057;-79
2022/08/08 05:25:03;;;;;;;7.47;5.60;;;;;;;15.30;81.08;96780.97;5070092;28;20048;-78
2022/08/08 05:27:30;;;;;;;8.98;5.85;;;;;;;15.32;80.36;96784.16;5070357;28;20040;-79
2022/08/08 05:29:57;;;;;;;8.50;5.80;;;;;;;15.40;81.03;96782.47;5070559;28;20049;-79
2022/08/08 05:32:23;;;;;;;8.18;5.78;;;;;;;15.46;80.81;96791.31;5069945;28;20043;-79
2022/08/08 05:34:52;;;;;;;9.52;5.88;;;;;;;15.51;81.09;96780.91;5070190;28;20055;-79
2022/08/08 05:37:24;;;;;;;8.18;6.05;;;;;;;15.60;80.98;96783.53;5069744;28;20504;-81
2022/08/08 05:39:53;;;;;;;8.55;5.65;;;;;;;15.65;81.20;96788.84;5071834;28;20051;-80
2022/08/08 05:42:24;;;;;;;9.30;5.70;;;;;;;15.73;81.14;96781.66;5071062;28;20058;-80
2022/08/08 05:44:52;;;;;;;8.13;6.00;;;;;;;15.78;79.45;96776.75;5071904;28;20048;-81
2022/08/08 05:47:21;;;;;;;9.90;5.60;;;;;;;15.83;79.48;96782.03;5071700;28;20045;-80
2022/08/08 05:49:49;;;;;;;7.35;6.15;;;;;;;15.89;78.32;96783.41;5072738;28;20056;-81
2022/08/08 05:52:17;;;;;;;6.30;4.90;;;;;;;15.94;78.24;96787.06;5078218;28;20048;-84
2022/08/08 05:54:45;;;;;;;7.60;6.18;;;;;;;16.00;78.22;96786.50;5091297;28;20048;-85
2022/08/08 05:57:15;;;;;;;7.43;5.47;;;;;;;15.98;75.85;96790.75;5085940;28;20492;-81
2022/08/08 05:59:45;;;;;;;7.43;4.57;;;;;;;15.89;74.07;96788.88;5089708;28;20090;-82
2022/08/08 06:05:14;;;;;;;5.85;4.60;;;;;;;16.18;73.73;96790.63;5077820;28;20082;-83
2022/08/08 06:07:41;;;;;;;5.93;4.22;;;;;;;16.17;72.84;96793.72;5094230;28;20052;-83
2022/08/08 06:10:11;;;;;;;4.18;3.78;;;;;;;16.17;70.83;96796.44;5084440;28;20044;-81
2022/08/08 06:12:39;;;;;;;6.45;3.72;;;;;;;16.29;70.70;96788.22;5090499;28;20348;-82
2022/08/08 06:15:07;;;;;;;6.97;4.20;;;;;;;16.38;70.00;96794.38;5090519;28;20111;-82
2022/08/08 06:17:36;;;;;;;6.75;4.28;;;;;;;16.44;70.26;96794.94;5088053;28;20049;-81
2022/08/08 06:20:06;;;;;;;7.80;4.75;;;;;;;16.31;70.70;96796.13;5087330;28;20076;-78
2022/08/08 06:22:32;;;;;;;9.38;6.68;;;;;;;16.44;71.51;96786.72;5089607;28;20044;-82
2022/08/08 06:24:59;;;;;;;6.25;5.15;;;;;;;16.51;71.55;96799.91;5088551;28;20113;-82
2022/08/08 06:27:41;;;;;;;7.07;4.88;;;;;;;16.69;72.19;96801.22;5086960;28;20044;-81
2022/08/08 06:30:10;;;;;;;6.75;5.03;;;;;;;16.82;73.81;96804.81;5085958;28;20124;-81
2022/08/08 06:32:42;;;;;;;6.85;5.00;;;;;;;16.93;73.45;96809.47;5086303;28;20049;-82
2022/08/08 06:35:12;;;;;;;6.15;4.95;;;;;;;17.09;72.84;96803.22;5087323;28;20054;-81
2022/08/08 06:37:43;;;;;;;8.68;5.32;;;;;;;17.17;72.42;96807.78;5089992;28;20414;-87
2022/08/08 06:40:13;;;;;;;6.00;4.78;;;;;;;17.24;72.90;96813.50;5097796;28;20502;-83
2022/08/08 06:42:47;;;;;;;6.53;4.82;;;;;;;17.37;72.79;96811.47;5097802;28;20036;-86
2022/08/08 06:45:14;;;;;;;11.95;5.15;;;;;;;17.54;71.97;96813.94;5099392;28;20076;-88
2022/08/08 06:47:41;;;;;;;5.93;4.68;;;;;;;17.73;72.04;96807.78;5098964;28;20092;-88
2022/08/08 06:50:10;;;;;;;7.05;4.78;;;;;;;17.90;71.82;96815.69;5088730;28;20043;-79
2022/08/08 06:52:38;;;;;;;5.85;4.50;;;;;;;18.06;71.20;96812.94;5097064;28;20075;-85
2022/08/08 06:55:05;;;;;;;5.65;4.50;;;;;;;18.24;71.11;96818.91;5098127;28;20104;-81
2022/08/08 06:57:32;;;;;;;10.73;8.70;;;;;;;18.31;69.05;96821.84;5099526;28;20080;-81
2022/08/08 07:00:00;;;;;;;10.63;5.15;;;;;;;18.46;69.86;96832.06;5097926;28;20119;-82
2022/08/08 07:02:31;;;;;;;10.00;5.15;;;;;;;18.51;69.07;96829.03;5080989;28;20761;-80
2022/08/08 07:05:03;;;;;;;6.10;4.97;;;;;;;18.70;68.25;96838.56;5080520;28;20098;-81
2022/08/08 07:07:43;;;;;;;7.45;5.10;;;;;;;18.73;66.68;96835.88;5078511;28;20052;-78
2022/08/08 07:10:11;;;;;;;10.65;5.32;;;;;;;18.89;65.55;96827.56;5080780;28;20051;-82
2022/08/08 07:12:42;;;;;;;7.63;4.60;;;;;;;19.10;67.12;96824.47;5078454;28;20041;-79
2022/08/08 07:15:12;;;;;;;8.40;4.07;;;;;;;19.24;66.17;96832.25;5084974;28;20088;-81
2022/08/08 07:17:47;;;;;;;8.18;4.50;;;;;;;19.08;64.54;96832.31;5098929;28;20029;-83
2022/08/08 07:20:18;;;;;;;5.22;4.30;;;;;;;19.25;66.18;96833.84;5099150;28;20116;-81
2022/08/08 07:23:00;;;;;;;6.38;4.65;;;;;;;19.20;62.44;96831.38;5088240;28;20040;-82
2022/08/08 07:25:27;;;;;;;6.15;4.25;;;;;;;19.32;62.35;96834.00;5084573;28;20487;-80
2022/08/08 07:28:03;;;;;;;7.30;4.00;;;;;;;19.34;61.72;96833.63;5089454;28;20108;-82
2022/08/08 07:30:31;;;;;;;7.57;3.90;;;;;;;19.48;62.36;96839.47;5094207;28;20040;-81
2022/08/08 07:32:59;;;;;;;5.07;3.67;;;;;;;19.60;62.15;96847.63;5081519;28;20064;-81
2022/08/08 07:35:27;;;;;;;4.72;3.85;;;;;;;19.66;61.48;96850.88;5081448;28;20059;-80
2022/08/08 07:37:56;;;;;;;7.40;4.25;;;;;;;19.67;62.16;96850.50;5091024;28;20089;-83
2022/08/08 07:40:23;;;;;;;5.97;4.03;;;;;;;19.74;59.53;96849.88;5091755;28;20040;-83
2022/08/08 07:42:53;;;;;;;6.88;4.25;;;;;;;19.83;60.94;96853.19;5086005;28;20044;-79
2022/08/08 07:45:20;;;;;;;5.95;3.80;;;;;;;20.02;61.06;96861.44;5078972;28;20051;-82
2022/08/08 07:47:48;;;;;;;4.75;4.20;;;;;;;20.11;60.20;96860.41;5085429;28;20049;-81
2022/08/08 07:50:15;;;;;;;11.32;4.30;;;;;;;20.24;59.05;96861.81;5089595;28;20071;-82
2022/08/08 07:52:46;;;;;;;6.43;4.18;;;;;;;20.32;58.79;96858.81;5087895;28;20048;-77
2022/08/08 07:55:18;;;;;;;6.47;4.65;;;;;;;20.44;58.34;96866.13;5073413;28;20099;-79
2022/08/08 07:58:00;;;;;;;6.80;4.50;;;;;;;20.75;58.09;96858.75;5085311;28;20056;-77
2022/08/08 08:00:34;;;;;;;5.45;3.83;;;;;;;21.65;57.34;96849.69;5073941;28;20044;-80
2022/08/08 08:03:06;;;;;;;7.05;4.13;;;;;;;22.04;54.80;96850.13;5095564;28;20098;-81
2022/08/08 08:05:37;;;;;;;8.90;4.03;;;;;;;22.28;55.80;96854.34;5076894;28;20040;-77
2022/08/08 08:08:06;;;;;;;7.80;4.82;;;;;;;22.65;57.52;96857.81;5081354;28;20299;-76
2022/08/08 08:10:37;;;;;;;4.93;3.78;;;;;;;22.76;53.91;96860.72;5087956;28;20044;-83
2022/08/08 08:15:59;;;;;;;4.03;3.40;;;;;;;22.89;49.01;96858.44;5082115;28;20496;-79
2022/08/08 08:18:33;;;;;;;4.90;3.13;;;;;;;23.00;50.86;96856.53;5092815;28;20075;-79
2022/08/08 08:21:01;;;;;;;3.92;2.78;;;;;;;23.11;50.41;96860.16;5097804;28;20103;-75
2022/08/08 08:23:28;;;;;;;4.18;3.53;;;;;;;23.23;49.22;96864.63;5171013;22;20021;-88
2022/08/08 08:25:55;;;;;;;4.28;2.90;;;;;;;23.57;51.14;96856.84;5055219;28;20049;-78
2022/08/08 08:28:23;;;;;;;7.25;2.95;;;;;;;23.67;47.50;96850.56;5033415;28;20057;-80
2022/08/08 08:30:50;;;;;;;5.25;3.22;;;;;;;23.62;48.99;96859.22;5037674;28;20084;-77
2022/08/08 08:33:16;;;;;;;4.75;2.90;;;;;;;23.71;47.49;96860.91;5032674;28;20052;-79
2022/08/08 08:35:44;;;;;;;4.07;2.70;;;;;;;23.37;47.17;96864.69;5041510;28;20512;-81
2022/08/08 08:38:10;;;;;;;7.20;4.00;;;;;;;23.57;47.97;96865.16;5037050;28;20049;-79
2022/08/08 08:40:37;;;;;;;5.32;3.40;;;;;;;23.55;47.45;96862.00;5037176;28;20037;-84
2022/08/08 08:43:06;;;;;;;4.43;3.00;;;;;;;23.61;47.56;96857.66;5053269;28;20049;-85
2022/08/08 08:45:35;;;;;;;4.18;3.35;;;;;;;23.41;47.28;96859.94;5051752;28;20053;-81
2022/08/08 08:48:04;;;;;;;5.47;3.00;;;;;;;23.43;49.93;96862.31;5036811;28;20045;-81
2022/08/08 08:50:30;;;;;;;6.10;2.95;;;;;;;23.67;49.19;96861.66;5039761;28;20616;-81
2022/08/08 08:53:02;;;;;;;4.15;2.78;;;;;;;23.63;48.57;96863.63;5039455;28;20076;-81
2022/08/08 08:55:31;;;;;;;3.20;2.35;;;;;;;23.57;47.32;96873.50;5043116;28;20063;-80
2022/08/08 08:57:59;;;;;;;5.75;3.22;;;;;;;23.73;48.99;96876.00;5037444;28;20125;-79
2022/08/08 09:00:27;;;;;;;5.70;2.83;;;;;;;24.00;46.80;96876.47;5030744;28;20045;-79
2022/08/08 09:02:56;;;;;;;6.72;3.45;;;;;;;23.82;45.57;96872.84;5030836;28;20416;-80
2022/08/08 09:05:23;;;;;;;4.53;2.85;;;;;;;23.76;46.08;96875.22;5032268;28;20049;-79
2022/08/08 09:07:52;;;;;;;6.43;2.50;;;;;;;23.56;45.63;96871.91;5039465;28;20045;-79
2022/08/08 09:10:23;;;;;;;5.43;2.42;;;;;;;23.53;46.53;96869.91;5048617;28;20061;-79
2022/08/08 09:12:51;;;;;;;3.67;2.53;;;;;;;23.69;47.49;96864.84;5035293;28;20041;-82
2022/08/08 09:15:18;;;;;;;6.30;2.70;;;;;;;23.81;45.46;96866.50;5033599;28;20420;-83
2022/08/08 09:17:46;;;;;;;3.83;2.65;;;;;;;23.76;46.35;96871.66;5033252;28;20045;-81
2022/08/08 09:20:13;;;;;;;3.55;2.58;;;;;;;24.01;45.61;96869.72;5044215;28;20113;-81
2022/08/08 09:22:39;;;;;;;5.38;2.95;;;;;;;24.07;45.44;96868.16;5063125;28;20757;-79
2022/08/08 09:25:07;;;;;;;4.90;2.92;;;;;;;24.06;46.25;96866.53;5058527;28;20057;-82
2022/08/08 09:27:36;;;;;;;5.70;3.08;;;;;;;24.08;45.73;96864.19;5050127;28;20068;-84
2022/08/08 09:30:07;;;;;;;6.25;3.03;;;;;;;24.14;44.81;96868.16;5018355;28;20029;-81
2022/08/08 09:32:38;;;;;;;4.88;3.25;;;;;;;24.06;44.53;96860.97;5054984;28;20087;-80
2022/08/08 09:35:07;;;;;;;4.93;2.63;;;;;;;24.13;45.69;96863.81;5066814;28;20701;-82
2022/08/08 09:37:44;;;;;;;3.60;2.45;;;;;;;24.05;48.67;96867.75;5062853;28;20041;-79
2022/08/08 09:40:12;;;;;;;4.03;2.90;;;;;;;24.09;44.50;96863.00;5059366;28;20053;-81
2022/08/08 09:42:43;;;;;;;6.43;2.75;;;;;;;24.24;46.58;96871.38;5063666;28;20045;-78
2022/08/08 09:45:10;;;;;;;5.78;3.17;;;;;;;24.40;46.89;96869.81;5049657;28;20060;-79
2022/08/08 09:47:39;;;;;;;5.95;3.47;;;;;;;24.38;45.07;96874.19;5050039;28;20068;-80
2022/08/08 09:50:09;;;;;;;12.43;3.60;;;;;;;24.46;45.66;96867.44;5049249;28;20053;-77
2022/08/08 09:52:36;;;;;;;5.20;3.58;;;;;;;24.49;45.74;96865.88;5049966;28;20048;-78
2022/08/08 09:55:03;;;;;;;6.05;3.03;;;;;;;24.16;43.87;96860.22;5049919;28;20080;-78
2022/08/08 09:57:34;;;;;;;4.95;3.08;;;;;;;24.45;45.11;96866.66;5050434;28;20064;-80
2022/08/08 10:00:05;;;;;;;4.78;2.72;;;;;;;24.65;44.91;96866.28;5050337;28;20497;-80
2022/08/08 10:02:36;;;;;;;5.13;2.90;;;;;;;24.52;42.81;96856.72;5050024;28;20049;-78
2022/08/08 10:05:05;;;;;;;5.55;2.40;;;;;;;24.60;44.67;96861.88;5050217;28;20059;-79
2022/08/08 10:07:31;;;;;;;5.30;2.20;;;;;;;24.71;45.67;96862.69;5050327;28;20187;-79
2022/08/08 10:09:58;;;;;;;4.43;2.45;;;;;;;24.81;41.47;96849.16;5050439;28;20049;-78
2022/08/08 10:12:35;;;;;;;4.43;2.70;;;;;;;24.81;42.39;96863.09;5049809;28;20045;-79
2022/08/08 10:15:05;;;;;;;4.60;2.53;;;;;;;24.94;43.37;96859.47;5050304;28;20385;-78
2022/08/08 10:17:32;;;;;;;3.88;2.33;;;;;;;24.99;41.93;96855.47;5050855;28;20055;-79
2022/08/08 10:20:00;;;;;;;3.67;2.35;;;;;;;24.47;44.17;96846.75;5053957;28;20492;-78
2022/08/08 10:22:29;;;;;;;4.05;2.42;;;;;;;24.46;43.45;96850.75;5057954;28;20041;-79
2022/08/08 10:25:02;;;;;;;4.80;2.45;;;;;;;24.52;43.65;96857.50;5058847;28;20049;-78
2022/08/08 10:27:29;;;;;;;4.10;2.65;;;;;;;24.39;46.24;96850.75;5054388;28;20041;-78
2022/08/08 10:30:00;;;;;;;3.58;2.30;;;;;;;24.09;42.95;96860.22;5053090;28;20053;-80
2022/08/08 10:32:34;;;;;;;4.05;2.40;;;;;;;24.05;44.29;96848.25;5052471;28;20587;-80
2022/08/08 10:35:07;;;;;;;3.80;2.50;;;;;;;24.09;45.79;96854.63;5053296;28;20072;-81
2022/08/08 10:37:34;;;;;;;;;;;;;;;24.12;45.33;96853.88;5054661;28;20503;-79
2022/08/08 10:40:03;;;;;;;5.28;2.45;;;;;;;24.36;43.65;96848.75;5055796;28;19931;-80
2022/08/08 10:42:33;;;;;;;2.53;2.22;;;;;;;24.62;46.09;96847.56;5055759;28;20120;-79
2022/08/08 10:45:01;;;;;;;4.32;2.63;;;;;;;24.54;43.85;96855.13;5055415;28;20056;-79
2022/08/08 10:47:30;;;;;;;5.00;2.33;;;;;;;24.53;43.94;96850.72;5054629;28;20046;-80
2022/08/08 10:49:57;;;;;;;4.13;2.85;;;;;;;24.25;43.29;96856.25;5054358;28;20049;-79
2022/08/08 10:52:26;;;;;;;4.10;2.53;;;;;;;24.06;43.86;96852.63;5052909;28;20118;-79
2022/08/08 10:54:53;;;;;;;5.80;2.85;;;;;;;24.00;44.09;96845.88;5054148;28;20045;-80
2022/08/08 10:57:20;;;;;;;5.13;2.42;;;;;;;24.14;44.97;96845.91;5054957;28;20049;-78
2022/08/08 10:59:51;;;;;;;4.20;2.50;;;;;;;24.48;45.00;96842.78;5055181;28;20068;-79
2022/08/08 11:02:23;;;;;;;4.10;2.40;;;;;;;24.63;42.54;96844.38;5054764;28;20056;-80
2022/08/08 11:04:51;;;;;;;6.18;2.30;;;;;;;24.69;42.02;96847.53;5054685;28;20049;-80
2022/08/08 11:07:28;;;;;;;6.50;2.10;;;;;;;24.79;42.61;96840.38;5054733;28;20044;-79
2022/08/08 11:09:54;;;;;;;6.07;2.70;;;;;;;24.79;42.69;96840.38;5054801;28;20048;-79
2022/08/08 11:12:21;;;;;;;5.38;2.60;;;;;;;24.88;44.19;96835.22;5054347;28;20045;-79
2022/08/08 11:14:50;;;;;;;3.22;2.13;;;;;;;24.91;39.89;96837.22;5054882;28;20492;-80
2022/08/08 11:17:20;;;;;;;6.10;2.50;;;;;;;24.51;40.75;96836.44;5054371;28;20053;-79
2022/08/08 11:19:47;;;;;;;3.33;2.35;;;;;;;24.68;44.16;96834.81;5054601;28;20049;-78
2022/08/08 11:22:17;;;;;;;4.68;2.63;;;;;;;24.73;42.28;96821.28;5054303;28;20045;-79
2022/08/08 11:24:47;;;;;;;7.35;2.63;;;;;;;24.61;42.41;96832.84;5054925;28;20045;-81
2022/08/08 11:27:15;;;;;;;3.92;2.30;;;;;;;24.69;42.16;96826.09;5053565;28;20415;-79
2022/08/08 11:29:43;;;;;;;3.33;2.38;;;;;;;24.73;40.48;96831.63;5053593;28;20049;-78
2022/08/08 11:32:11;;;;;;;3.13;2.30;;;;;;;24.85;40.98;96833.22;5053146;28;20048;-78
2022/08/08 11:34:41;;;;;;;3.97;2.63;;;;;;;24.65;39.53;96830.88;5053268;28;20053;-79
2022/08/08 11:37:10;;;;;;;4.90;2.38;;;;;;;24.86;42.53;96832.03;5053472;28;20056;-80
2022/08/08 11:39:40;;;;;;;3.00;1.90;;;;;;;24.97;42.03;96832.81;5059605;28;20045;-79
2022/08/08 11:42:07;;;;;;;5.80;2.00;;;;;;;24.95;40.11;96827.66;5054888;28;20069;-79
2022/08/08 11:44:34;;;;;;;2.50;1.98;;;;;;;24.77;38.48;96826.06;5056555;28;20075;-78
2022/08/08 11:47:01;;;;;;;4.18;2.10;;;;;;;24.75;40.18;96834.03;5052591;28;20052;-78
2022/08/08 11:49:28;;;;;;;3.53;2.35;;;;;;;24.78;40.76;96824.88;5053691;28;20048;-79
2022/08/08 11:51:55;;;;;;;4.85;2.00;;;;;;;25.01;44.90;96825.25;5053341;28;20550;-80
2022/08/08 11:54:34;;;;;;;4.80;1.80;;;;;;;25.08;41.07;96819.69;5055250;28;20049;-81
2022/08/08 11:57:13;;;;;;;4.43;2.10;;;;;;;25.07;40.82;96822.88;5047194;28;20581;-79
2022/08/08 11:59:43;;;;;;;4.40;2.50;;;;;;;24.84;40.28;96826.06;5052619;28;20040;-79
2022/08/08 12:02:10;;;;;;;4.43;2.10;;;;;;;24.90;42.64;96824.44;5052760;28;20127;-80
2022/08/08 12:04:38;;;;;;;3.95;2.10;;;;;;;24.28;41.16;96822.09;5060366;28;20055;-80
2022/08/08 12:07:05;;;;;;;3.28;1.58;;;;;;;24.46;41.90;96814.56;5067171;28;20123;-79
2022/08/08 12:09:32;;;;;;;3.80;2.35;;;;;;;24.37;42.70;96819.72;5062699;28;20056;-78
2022/08/08 12:11:59;;;;;;;3.55;1.67;;;;;;;24.40;43.59;96810.59;5052964;28;20049;-80
2022/08/08 12:14:27;;;;;;;3.17;2.05;;;;;;;24.37;43.63;96811.38;5052917;28;20104;-78